AXY303 NZCH-NZFX
Flight info
| Callsign | AXY303 |
|---|---|
| Flight time | N/A |
| Altitude | 41000 |
| Route | PEHRR A338 FRITH/N0452F400 A338 JEHOO |
| Aircraft | A343/H-SDE2E3FGHIJ4J5M1RWXY/LB1D1 |
Departure
| Time | 2026-05-06 17:41 |
|---|---|
| Airport | Christchurch International Airport (NZCH) |
Arrival
| Time | N/A |
|---|---|
| Airport | Phoenix Airfield (NZFX) |
| Time | Latitude | Longitude | Altitude | Speed | Heading |
|---|---|---|---|---|---|
| 2026-05-06 17:16 | -43.48734 | 172.54529 | 133 ft | 0 kts | 270° |
| 2026-05-06 17:34 | -43.48734 | 172.54528 | 107 ft | 0 kts | 270° |
| 2026-05-06 17:34 | -43.48733 | 172.54518 | 107 ft | 2 kts | 278° |
| 2026-05-06 17:35 | -43.48725 | 172.54475 | 108 ft | 7 kts | 282° |
| 2026-05-06 17:35 | -43.48699 | 172.54386 | 108 ft | 12 kts | 304° |
| 2026-05-06 17:35 | -43.48648 | 172.54297 | 108 ft | 11 kts | 309° |
| 2026-05-06 17:36 | -43.48543 | 172.54130 | 110 ft | 12 kts | 310° |
| 2026-05-06 17:36 | -43.48508 | 172.54037 | 109 ft | 11 kts | 274° |
| 2026-05-06 17:36 | -43.48543 | 172.53956 | 110 ft | 9 kts | 222° |
| 2026-05-06 17:36 | -43.48595 | 172.53897 | 110 ft | 11 kts | 219° |
| 2026-05-06 17:37 | -43.48657 | 172.53824 | 111 ft | 13 kts | 220° |
| 2026-05-06 17:37 | -43.48732 | 172.53738 | 113 ft | 15 kts | 219° |
| 2026-05-06 17:37 | -43.48819 | 172.53639 | 115 ft | 17 kts | 219° |
| 2026-05-06 17:37 | -43.48915 | 172.53529 | 113 ft | 18 kts | 220° |
| 2026-05-06 17:38 | -43.49017 | 172.53412 | 111 ft | 21 kts | 218° |
| 2026-05-06 17:38 | -43.49131 | 172.53286 | 113 ft | 20 kts | 220° |
| 2026-05-06 17:38 | -43.49238 | 172.53158 | 112 ft | 21 kts | 220° |
| 2026-05-06 17:38 | -43.49343 | 172.53037 | 117 ft | 18 kts | 220° |
| 2026-05-06 17:39 | -43.49439 | 172.52926 | 119 ft | 18 kts | 220° |
| 2026-05-06 17:39 | -43.49464 | 172.52897 | 118 ft | 0 kts | 218° |
| 2026-05-06 17:39 | -43.49474 | 172.52887 | 119 ft | 4 kts | 218° |
| 2026-05-06 17:39 | -43.49504 | 172.52838 | 121 ft | 10 kts | 243° |
| 2026-05-06 17:40 | -43.49508 | 172.52725 | 123 ft | 15 kts | 272° |
| 2026-05-06 17:40 | -43.49474 | 172.52576 | 116 ft | 10 kts | 322° |
| 2026-05-06 17:40 | -43.49449 | 172.52576 | 119 ft | 3 kts | 10° |
| 2026-05-06 17:40 | -43.49388 | 172.52627 | 117 ft | 19 kts | 41° |
| 2026-05-06 17:41 | -43.49148 | 172.52913 | 112 ft | 82 kts | 40° |
| 2026-05-06 17:41 | -43.48530 | 172.53627 | 113 ft | 147 kts | 40° |
| 2026-05-06 17:41 | -43.47612 | 172.54680 | 297 ft | 191 kts | 40° |
| 2026-05-06 17:41 | -43.46454 | 172.55831 | 807 ft | 221 kts | 29° |
| 2026-05-06 17:42 | -43.45013 | 172.56864 | 1596 ft | 245 kts | 25° |
| 2026-05-06 17:42 | -43.43511 | 172.57956 | 2644 ft | 239 kts | 25° |
| 2026-05-06 17:42 | -43.42001 | 172.58704 | 3835 ft | 224 kts | 4° |
| 2026-05-06 17:42 | -43.40490 | 172.58895 | 4979 ft | 212 kts | 355° |
| 2026-05-06 17:43 | -43.39062 | 172.58639 | 5965 ft | 205 kts | 339° |
| 2026-05-06 17:43 | -43.37849 | 172.57736 | 6897 ft | 196 kts | 316° |
| 2026-05-06 17:43 | -43.37228 | 172.56081 | 7586 ft | 205 kts | 280° |
| 2026-05-06 17:43 | -43.37307 | 172.54067 | 8129 ft | 225 kts | 256° |
| 2026-05-06 17:44 | -43.37944 | 172.52010 | 8663 ft | 241 kts | 250° |
| 2026-05-06 17:44 | -43.38819 | 172.49986 | 9306 ft | 254 kts | 233° |
| 2026-05-06 17:44 | -43.40270 | 172.48499 | 9931 ft | 271 kts | 204° |
| 2026-05-06 17:44 | -43.42191 | 172.48005 | 10248 ft | 294 kts | 183° |
| 2026-05-06 17:45 | -43.44307 | 172.47948 | 10535 ft | 315 kts | 181° |
| 2026-05-06 17:45 | -43.46565 | 172.47915 | 10825 ft | 334 kts | 181° |
| 2026-05-06 17:45 | -43.48912 | 172.47853 | 11132 ft | 350 kts | 182° |
| 2026-05-06 17:45 | -43.51381 | 172.47758 | 11618 ft | 359 kts | 183° |
| 2026-05-06 17:46 | -43.53903 | 172.47651 | 12206 ft | 366 kts | 183° |
| 2026-05-06 17:46 | -43.56468 | 172.47466 | 12814 ft | 372 kts | 186° |
| 2026-05-06 17:46 | -43.59070 | 172.47152 | 13432 ft | 378 kts | 187° |
| 2026-05-06 17:46 | -43.61714 | 172.46828 | 14008 ft | 384 kts | 187° |
| 2026-05-06 17:47 | -43.64393 | 172.46513 | 14628 ft | 388 kts | 187° |
| 2026-05-06 17:47 | -43.67088 | 172.46204 | 15296 ft | 389 kts | 187° |
| 2026-05-06 17:47 | -43.69797 | 172.45898 | 15949 ft | 392 kts | 187° |
| 2026-05-06 17:47 | -43.72523 | 172.45593 | 16579 ft | 395 kts | 187° |
| 2026-05-06 17:48 | -43.75277 | 172.45285 | 17203 ft | 398 kts | 188° |
| 2026-05-06 17:48 | -43.78051 | 172.44975 | 17829 ft | 401 kts | 188° |
| 2026-05-06 17:48 | -43.80845 | 172.44664 | 18442 ft | 404 kts | 188° |
| 2026-05-06 17:48 | -43.83660 | 172.44350 | 18959 ft | 407 kts | 188° |
| 2026-05-06 17:49 | -43.86495 | 172.44034 | 19484 ft | 411 kts | 188° |
| 2026-05-06 17:49 | -43.89357 | 172.43714 | 19995 ft | 414 kts | 188° |
| 2026-05-06 17:49 | -43.92242 | 172.43392 | 20499 ft | 417 kts | 188° |
| 2026-05-06 17:49 | -43.95151 | 172.43067 | 21004 ft | 421 kts | 188° |
| 2026-05-06 17:50 | -43.98082 | 172.42739 | 21517 ft | 424 kts | 188° |
| 2026-05-06 17:50 | -44.01031 | 172.42409 | 22008 ft | 427 kts | 188° |
| 2026-05-06 17:50 | -44.04002 | 172.42076 | 22491 ft | 431 kts | 188° |
| 2026-05-06 17:50 | -44.07003 | 172.41739 | 22964 ft | 434 kts | 188° |
| 2026-05-06 17:51 | -44.10018 | 172.41401 | 23448 ft | 437 kts | 188° |
| 2026-05-06 17:51 | -44.13063 | 172.41059 | 23860 ft | 440 kts | 188° |
| 2026-05-06 17:51 | -44.16114 | 172.40716 | 24255 ft | 442 kts | 188° |
| 2026-05-06 17:51 | -44.19188 | 172.40348 | 24647 ft | 444 kts | 189° |
| 2026-05-06 17:52 | -44.22262 | 172.39873 | 25021 ft | 446 kts | 191° |
| 2026-05-06 17:52 | -44.25348 | 172.39335 | 25411 ft | 448 kts | 191° |
| 2026-05-06 17:52 | -44.28448 | 172.38779 | 25803 ft | 450 kts | 191° |
| 2026-05-06 17:52 | -44.31555 | 172.38227 | 26171 ft | 452 kts | 191° |
| 2026-05-06 17:53 | -44.34685 | 172.37683 | 26560 ft | 454 kts | 191° |
| 2026-05-06 17:53 | -44.37823 | 172.37148 | 26931 ft | 456 kts | 191° |
| 2026-05-06 17:53 | -44.40986 | 172.36617 | 27271 ft | 458 kts | 191° |
| 2026-05-06 17:53 | -44.44157 | 172.36089 | 27624 ft | 460 kts | 191° |
| 2026-05-06 17:54 | -44.47345 | 172.35559 | 27974 ft | 462 kts | 191° |
| 2026-05-06 17:54 | -44.50550 | 172.35027 | 28311 ft | 464 kts | 191° |
| 2026-05-06 17:54 | -44.53764 | 172.34492 | 28648 ft | 466 kts | 192° |
| 2026-05-06 17:54 | -44.56991 | 172.33953 | 28972 ft | 468 kts | 192° |
| 2026-05-06 17:55 | -44.60228 | 172.33412 | 29287 ft | 470 kts | 192° |
| 2026-05-06 17:55 | -44.63483 | 172.32867 | 29602 ft | 472 kts | 192° |
| 2026-05-06 17:55 | -44.66748 | 172.32320 | 29910 ft | 474 kts | 192° |
| 2026-05-06 17:55 | -44.70023 | 172.31770 | 30184 ft | 475 kts | 192° |
| 2026-05-06 17:56 | -44.73318 | 172.31216 | 30446 ft | 477 kts | 192° |
| 2026-05-06 17:56 | -44.76621 | 172.30660 | 30691 ft | 479 kts | 192° |
| 2026-05-06 17:56 | -44.79940 | 172.30100 | 30909 ft | 481 kts | 193° |
| 2026-05-06 17:56 | -44.83268 | 172.29539 | 31165 ft | 483 kts | 193° |
| 2026-05-06 17:57 | -44.85484 | 172.29165 | 31336 ft | 483 kts | 193° |
| 2026-05-06 17:57 | -44.88820 | 172.28602 | 31583 ft | 485 kts | 193° |
| 2026-05-06 17:57 | -44.92180 | 172.28034 | 31848 ft | 485 kts | 193° |
| 2026-05-06 17:57 | -44.95526 | 172.27469 | 32179 ft | 485 kts | 194° |
| 2026-05-06 17:58 | -44.98878 | 172.26902 | 32437 ft | 485 kts | 194° |
| 2026-05-06 17:58 | -45.02233 | 172.26333 | 32765 ft | 484 kts | 194° |
| 2026-05-06 17:58 | -45.05570 | 172.25768 | 33115 ft | 483 kts | 194° |
| 2026-05-06 17:58 | -45.08903 | 172.25203 | 33441 ft | 481 kts | 194° |
| 2026-05-06 17:59 | -45.12220 | 172.24639 | 33797 ft | 480 kts | 195° |
| 2026-05-06 17:59 | -45.15539 | 172.24073 | 34064 ft | 480 kts | 195° |
| 2026-05-06 17:59 | -45.18851 | 172.23507 | 34284 ft | 480 kts | 195° |
| 2026-05-06 17:59 | -45.22166 | 172.22940 | 34541 ft | 479 kts | 194° |
| 2026-05-06 18:00 | -45.25465 | 172.22382 | 34797 ft | 478 kts | 194° |
| 2026-05-06 18:00 | -45.28763 | 172.21820 | 35043 ft | 477 kts | 194° |
| 2026-05-06 18:00 | -45.32064 | 172.21252 | 35307 ft | 476 kts | 194° |
| 2026-05-06 18:00 | -45.35350 | 172.20684 | 35537 ft | 476 kts | 194° |
| 2026-05-06 18:01 | -45.38639 | 172.20115 | 35761 ft | 475 kts | 194° |
| 2026-05-06 18:01 | -45.41918 | 172.19548 | 35966 ft | 475 kts | 194° |
| 2026-05-06 18:01 | -45.45201 | 172.18980 | 36189 ft | 475 kts | 194° |
| 2026-05-06 18:01 | -45.48475 | 172.18414 | 36391 ft | 474 kts | 194° |
| 2026-05-06 18:02 | -45.51747 | 172.17848 | 36610 ft | 474 kts | 194° |
| 2026-05-06 18:02 | -45.55024 | 172.17281 | 36838 ft | 473 kts | 194° |
| 2026-05-06 18:02 | -45.58289 | 172.16715 | 37031 ft | 473 kts | 193° |
| 2026-05-06 18:02 | -45.61551 | 172.16149 | 37224 ft | 473 kts | 193° |
| 2026-05-06 18:03 | -45.64819 | 172.15581 | 37404 ft | 472 kts | 193° |
| 2026-05-06 18:03 | -45.68082 | 172.15013 | 37587 ft | 472 kts | 193° |
| 2026-05-06 18:03 | -45.71344 | 172.14445 | 37775 ft | 472 kts | 193° |
| 2026-05-06 18:03 | -45.74599 | 172.13877 | 38019 ft | 470 kts | 193° |
| 2026-05-06 18:04 | -45.77796 | 172.13319 | 38217 ft | 469 kts | 193° |
| 2026-05-06 18:04 | -45.81079 | 172.12745 | 38388 ft | 469 kts | 193° |
| 2026-05-06 18:04 | -45.84275 | 172.12185 | 38533 ft | 469 kts | 192° |
| 2026-05-06 18:04 | -45.87554 | 172.11610 | 38685 ft | 469 kts | 192° |
| 2026-05-06 18:05 | -45.90794 | 172.11042 | 38817 ft | 468 kts | 192° |
| 2026-05-06 18:05 | -45.93985 | 172.10483 | 38939 ft | 468 kts | 192° |
| 2026-05-06 18:05 | -46.00472 | 172.09339 | 38993 ft | 473 kts | 192° |
| 2026-05-06 18:06 | -46.07021 | 172.08184 | 38993 ft | 473 kts | 192° |
| 2026-05-06 18:06 | -46.13542 | 172.07035 | 38994 ft | 471 kts | 193° |
| 2026-05-06 18:07 | -46.20041 | 172.05885 | 38986 ft | 471 kts | 193° |
| 2026-05-06 18:07 | -46.26544 | 172.04730 | 38995 ft | 471 kts | 193° |
| 2026-05-06 18:08 | -46.33047 | 172.03572 | 38993 ft | 471 kts | 193° |
| 2026-05-06 18:08 | -46.39548 | 172.02412 | 38986 ft | 471 kts | 193° |
| 2026-05-06 18:09 | -46.46048 | 172.01249 | 38988 ft | 471 kts | 193° |
| 2026-05-06 18:09 | -46.52548 | 172.00084 | 38984 ft | 471 kts | 193° |
| 2026-05-06 18:10 | -46.59047 | 171.98916 | 38982 ft | 471 kts | 193° |
| 2026-05-06 18:10 | -46.65549 | 171.97745 | 38980 ft | 471 kts | 193° |
| 2026-05-06 18:11 | -46.72048 | 171.96572 | 38982 ft | 470 kts | 194° |
| 2026-05-06 18:11 | -46.78541 | 171.95396 | 38974 ft | 470 kts | 194° |
| 2026-05-06 18:12 | -46.85033 | 171.94218 | 38974 ft | 470 kts | 194° |
| 2026-05-06 18:12 | -46.91528 | 171.93037 | 38984 ft | 470 kts | 194° |
| 2026-05-06 18:13 | -46.97973 | 171.91862 | 38974 ft | 470 kts | 194° |
| 2026-05-06 18:13 | -47.04465 | 171.90676 | 38974 ft | 470 kts | 194° |
| 2026-05-06 18:14 | -47.10945 | 171.89488 | 38986 ft | 470 kts | 194° |
| 2026-05-06 18:14 | -47.17433 | 171.88296 | 38972 ft | 470 kts | 194° |
| 2026-05-06 18:15 | -47.23925 | 171.87100 | 38972 ft | 470 kts | 194° |
| 2026-05-06 18:15 | -47.30420 | 171.85901 | 38969 ft | 470 kts | 194° |
| 2026-05-06 18:16 | -47.36913 | 171.84700 | 38972 ft | 471 kts | 194° |
| 2026-05-06 18:16 | -47.43404 | 171.83496 | 38971 ft | 471 kts | 194° |
| 2026-05-06 18:17 | -47.49910 | 171.82286 | 38971 ft | 471 kts | 194° |
| 2026-05-06 18:17 | -47.56417 | 171.81072 | 38970 ft | 472 kts | 194° |
| 2026-05-06 18:18 | -47.62939 | 171.79852 | 38972 ft | 473 kts | 194° |
| 2026-05-06 18:18 | -47.69463 | 171.78630 | 38963 ft | 473 kts | 194° |
| 2026-05-06 18:19 | -47.75987 | 171.77406 | 38968 ft | 473 kts | 194° |
| 2026-05-06 18:19 | -47.82527 | 171.76174 | 38970 ft | 474 kts | 194° |
| 2026-05-06 18:20 | -47.88948 | 171.74961 | 38970 ft | 474 kts | 194° |
| 2026-05-06 18:20 | -47.95493 | 171.73723 | 38974 ft | 474 kts | 194° |
| 2026-05-06 18:21 | -48.02024 | 171.72484 | 38963 ft | 473 kts | 194° |
| 2026-05-06 18:21 | -48.08563 | 171.71241 | 38963 ft | 473 kts | 194° |
| 2026-05-06 18:22 | -48.15065 | 171.70000 | 38979 ft | 473 kts | 195° |
| 2026-05-06 18:22 | -48.21595 | 171.68752 | 38962 ft | 472 kts | 195° |
| 2026-05-06 18:23 | -48.28116 | 171.67502 | 38957 ft | 472 kts | 195° |
| 2026-05-06 18:23 | -48.34641 | 171.66247 | 38964 ft | 472 kts | 195° |
| 2026-05-06 18:24 | -48.41164 | 171.64990 | 38955 ft | 472 kts | 195° |
| 2026-05-06 18:24 | -48.47678 | 171.63732 | 38949 ft | 472 kts | 195° |
| 2026-05-06 18:25 | -48.54198 | 171.62469 | 38951 ft | 472 kts | 195° |
| 2026-05-06 18:25 | -48.60712 | 171.61203 | 38950 ft | 472 kts | 195° |
| 2026-05-06 18:26 | -48.67232 | 171.59934 | 38949 ft | 472 kts | 195° |
| 2026-05-06 18:26 | -48.73748 | 171.58662 | 38946 ft | 472 kts | 195° |
| 2026-05-06 18:27 | -48.80263 | 171.57387 | 38950 ft | 472 kts | 195° |
| 2026-05-06 18:27 | -48.86780 | 171.56107 | 38946 ft | 473 kts | 195° |
| 2026-05-06 18:28 | -48.93305 | 171.54823 | 38949 ft | 473 kts | 195° |
| 2026-05-06 18:28 | -48.99785 | 171.53545 | 38970 ft | 473 kts | 195° |
| 2026-05-06 18:29 | -49.06314 | 171.52253 | 38950 ft | 474 kts | 195° |
| 2026-05-06 18:29 | -49.12855 | 171.50956 | 38946 ft | 474 kts | 195° |
| 2026-05-06 18:30 | -49.19398 | 171.49655 | 38950 ft | 474 kts | 195° |
| 2026-05-06 18:30 | -49.25945 | 171.48350 | 38949 ft | 475 kts | 195° |
| 2026-05-06 18:31 | -49.32503 | 171.47038 | 38947 ft | 475 kts | 195° |
| 2026-05-06 18:31 | -49.39064 | 171.45724 | 38947 ft | 475 kts | 195° |
| 2026-05-06 18:32 | -49.45617 | 171.44407 | 38953 ft | 476 kts | 195° |
| 2026-05-06 18:32 | -49.52187 | 171.43082 | 38944 ft | 477 kts | 195° |
| 2026-05-06 18:33 | -49.58766 | 171.41752 | 38941 ft | 477 kts | 195° |
| 2026-05-06 18:33 | -49.65347 | 171.40419 | 38959 ft | 477 kts | 195° |
| 2026-05-06 18:34 | -49.71932 | 171.39082 | 38938 ft | 478 kts | 195° |
| 2026-05-06 18:34 | -49.78523 | 171.37738 | 38934 ft | 478 kts | 195° |
| 2026-05-06 18:35 | -49.85115 | 171.36392 | 38939 ft | 478 kts | 195° |
| 2026-05-06 18:35 | -49.91713 | 171.35041 | 38938 ft | 478 kts | 195° |
| 2026-05-06 18:36 | -49.98317 | 171.33683 | 38934 ft | 479 kts | 195° |
| 2026-05-06 18:36 | -50.04973 | 171.32601 | 38931 ft | 484 kts | 191° |
| 2026-05-06 18:37 | -50.10580 | 171.32278 | 38939 ft | 486 kts | 189° |
| 2026-05-06 18:37 | -50.18485 | 171.31902 | 38928 ft | 484 kts | 190° |
| 2026-05-06 18:38 | -50.25190 | 171.31464 | 38928 ft | 481 kts | 191° |
| 2026-05-06 18:38 | -50.31870 | 171.30962 | 38920 ft | 481 kts | 191° |
| 2026-05-06 18:39 | -50.38559 | 171.30446 | 38922 ft | 482 kts | 191° |
| 2026-05-06 18:40 | -50.48563 | 171.29681 | 38918 ft | 482 kts | 191° |
| 2026-05-06 18:40 | -50.55260 | 171.29172 | 38947 ft | 482 kts | 191° |
| 2026-05-06 18:41 | -50.61957 | 171.28662 | 38913 ft | 482 kts | 191° |
| 2026-05-06 18:41 | -50.68652 | 171.28150 | 38907 ft | 482 kts | 191° |
| 2026-05-06 18:42 | -50.75346 | 171.27636 | 38907 ft | 482 kts | 191° |
| 2026-05-06 18:42 | -50.82039 | 171.27121 | 38904 ft | 482 kts | 191° |
| 2026-05-06 18:43 | -50.88725 | 171.26605 | 38903 ft | 482 kts | 191° |
| 2026-05-06 18:43 | -50.95418 | 171.26087 | 38898 ft | 481 kts | 191° |
| 2026-05-06 18:44 | -51.01025 | 171.25652 | 38914 ft | 481 kts | 191° |
| 2026-05-06 18:44 | -51.07716 | 171.25131 | 38897 ft | 481 kts | 191° |
| 2026-05-06 18:45 | -51.14362 | 171.24613 | 38894 ft | 481 kts | 191° |
| 2026-05-06 18:45 | -51.21052 | 171.24089 | 38892 ft | 481 kts | 191° |
| 2026-05-06 18:46 | -51.27743 | 171.23564 | 38898 ft | 481 kts | 191° |
| 2026-05-06 18:46 | -51.34430 | 171.23038 | 38882 ft | 481 kts | 191° |
| 2026-05-06 18:47 | -51.41117 | 171.22510 | 38883 ft | 481 kts | 191° |
| 2026-05-06 18:47 | -51.47805 | 171.21980 | 38887 ft | 481 kts | 191° |
| 2026-05-06 18:48 | -51.54493 | 171.21449 | 38876 ft | 481 kts | 191° |
| 2026-05-06 18:48 | -51.61182 | 171.20916 | 38870 ft | 481 kts | 191° |
| 2026-05-06 18:49 | -51.67867 | 171.20382 | 38862 ft | 481 kts | 191° |
| 2026-05-06 18:49 | -51.74560 | 171.19845 | 38876 ft | 481 kts | 191° |
| 2026-05-06 18:50 | -51.81242 | 171.19308 | 38859 ft | 481 kts | 191° |
| 2026-05-06 18:50 | -51.87940 | 171.18768 | 38853 ft | 481 kts | 191° |
| 2026-05-06 18:51 | -51.94632 | 171.18228 | 38846 ft | 481 kts | 191° |
| 2026-05-06 18:51 | -52.01311 | 171.17687 | 38851 ft | 480 kts | 191° |
| 2026-05-06 18:52 | -52.07986 | 171.17145 | 38843 ft | 480 kts | 191° |
| 2026-05-06 18:52 | -52.14313 | 171.16628 | 38843 ft | 480 kts | 191° |
| 2026-05-06 18:53 | -52.20978 | 171.16082 | 38842 ft | 480 kts | 191° |
| 2026-05-06 18:53 | -52.27648 | 171.15535 | 38826 ft | 480 kts | 191° |
| 2026-05-06 18:54 | -52.34321 | 171.14986 | 38823 ft | 480 kts | 191° |
| 2026-05-06 18:54 | -52.40991 | 171.14435 | 38826 ft | 480 kts | 191° |
| 2026-05-06 18:55 | -52.47666 | 171.13883 | 38823 ft | 480 kts | 191° |
| 2026-05-06 18:55 | -52.54338 | 171.13328 | 38809 ft | 480 kts | 191° |
| 2026-05-06 18:56 | -52.61012 | 171.12772 | 38810 ft | 480 kts | 191° |
| 2026-05-06 18:56 | -52.67688 | 171.12215 | 38841 ft | 480 kts | 191° |
| 2026-05-06 18:57 | -52.74325 | 171.11658 | 38796 ft | 481 kts | 192° |
| 2026-05-06 18:57 | -52.81049 | 171.11093 | 38802 ft | 481 kts | 192° |
| 2026-05-06 18:58 | -52.87737 | 171.10529 | 38793 ft | 481 kts | 192° |
| 2026-05-06 18:58 | -52.94414 | 171.09965 | 38802 ft | 481 kts | 192° |
| 2026-05-06 18:59 | -53.01048 | 171.09401 | 38784 ft | 482 kts | 192° |
| 2026-05-06 18:59 | -53.07742 | 171.08831 | 38776 ft | 482 kts | 192° |
| 2026-05-06 19:00 | -53.14437 | 171.08260 | 38770 ft | 482 kts | 192° |
| 2026-05-06 19:00 | -53.21133 | 171.07687 | 38771 ft | 482 kts | 192° |
| 2026-05-06 19:01 | -53.27831 | 171.07111 | 38763 ft | 482 kts | 192° |
| 2026-05-06 19:01 | -53.34523 | 171.06535 | 38759 ft | 482 kts | 192° |
| 2026-05-06 19:02 | -53.41218 | 171.05956 | 38787 ft | 482 kts | 192° |
| 2026-05-06 19:02 | -53.47919 | 171.05375 | 38750 ft | 482 kts | 192° |
| 2026-05-06 19:03 | -53.54580 | 171.04794 | 38738 ft | 483 kts | 192° |
| 2026-05-06 19:03 | -53.61286 | 171.04210 | 38727 ft | 482 kts | 192° |
| 2026-05-06 19:04 | -53.68029 | 171.03620 | 38752 ft | 483 kts | 192° |
| 2026-05-06 19:04 | -53.74699 | 171.03033 | 38718 ft | 484 kts | 192° |
| 2026-05-06 19:05 | -53.81424 | 171.02440 | 38709 ft | 484 kts | 192° |
| 2026-05-06 19:05 | -53.87008 | 171.01947 | 38708 ft | 484 kts | 192° |
| 2026-05-06 19:06 | -53.87312 | 171.01920 | 38715 ft | 484 kts | 192° |
| 2026-05-06 19:06 | -53.93698 | 171.01355 | 38708 ft | 484 kts | 193° |
| 2026-05-06 19:07 | -54.00438 | 171.00754 | 38695 ft | 486 kts | 193° |
| 2026-05-06 19:07 | -54.07199 | 171.00150 | 38684 ft | 486 kts | 193° |
| 2026-05-06 19:08 | -54.13950 | 170.99549 | 38673 ft | 485 kts | 193° |
| 2026-05-06 19:08 | -54.20685 | 170.98947 | 38680 ft | 485 kts | 193° |
| 2026-05-06 19:09 | -54.27426 | 170.98335 | 38663 ft | 486 kts | 193° |
| 2026-05-06 19:09 | -54.34184 | 170.97723 | 38653 ft | 486 kts | 193° |
| 2026-05-06 19:10 | -54.40949 | 170.97111 | 38656 ft | 486 kts | 193° |
| 2026-05-06 19:10 | -54.47712 | 170.96496 | 38639 ft | 487 kts | 193° |
| 2026-05-06 19:11 | -54.54479 | 170.95878 | 38634 ft | 487 kts | 193° |
| 2026-05-06 19:11 | -54.61207 | 170.95263 | 38633 ft | 487 kts | 193° |
| 2026-05-06 19:12 | -54.67983 | 170.94641 | 38673 ft | 488 kts | 193° |
| 2026-05-06 19:12 | -54.74548 | 170.94035 | 38614 ft | 488 kts | 193° |
| 2026-05-06 19:13 | -54.81329 | 170.93407 | 38611 ft | 488 kts | 193° |
| 2026-05-06 19:13 | -54.88117 | 170.92778 | 38600 ft | 488 kts | 193° |
| 2026-05-06 19:14 | -54.94898 | 170.92147 | 38608 ft | 488 kts | 194° |
| 2026-05-06 19:14 | -55.01689 | 170.91514 | 38592 ft | 489 kts | 194° |
| 2026-05-06 19:15 | -55.08475 | 170.90832 | 38577 ft | 489 kts | 194° |
| 2026-05-06 19:15 | -55.13891 | 170.90264 | 38570 ft | 489 kts | 194° |
| 2026-05-06 19:16 | -55.20683 | 170.89555 | 38594 ft | 489 kts | 194° |
| 2026-05-06 19:16 | -55.27478 | 170.88851 | 38559 ft | 490 kts | 194° |
| 2026-05-06 19:17 | -55.34277 | 170.88148 | 38550 ft | 490 kts | 194° |
| 2026-05-06 19:17 | -55.41087 | 170.87444 | 38550 ft | 490 kts | 194° |
| 2026-05-06 19:18 | -55.47893 | 170.86736 | 38549 ft | 490 kts | 194° |
| 2026-05-06 19:18 | -55.54698 | 170.86024 | 38538 ft | 491 kts | 194° |
| 2026-05-06 19:19 | -55.61519 | 170.85308 | 38533 ft | 491 kts | 194° |
| 2026-05-06 19:19 | -55.68333 | 170.84592 | 38517 ft | 491 kts | 194° |
| 2026-05-06 19:20 | -55.75155 | 170.83873 | 38519 ft | 491 kts | 194° |
| 2026-05-06 19:20 | -55.81969 | 170.83151 | 38508 ft | 491 kts | 194° |
| 2026-05-06 19:21 | -55.88747 | 170.82430 | 38511 ft | 491 kts | 194° |
| 2026-05-06 19:21 | -55.95568 | 170.81702 | 38507 ft | 491 kts | 194° |
| 2026-05-06 19:22 | -56.02387 | 170.80972 | 38498 ft | 492 kts | 194° |
| 2026-05-06 19:22 | -56.09222 | 170.80236 | 38482 ft | 492 kts | 194° |
| 2026-05-06 19:23 | -56.16062 | 170.79499 | 38480 ft | 492 kts | 194° |
| 2026-05-06 19:23 | -56.22898 | 170.78760 | 38473 ft | 492 kts | 194° |
| 2026-05-06 19:24 | -56.29748 | 170.78016 | 38458 ft | 493 kts | 194° |
| 2026-05-06 19:24 | -56.36592 | 170.77270 | 38451 ft | 493 kts | 194° |
| 2026-05-06 19:25 | -56.43435 | 170.76524 | 38451 ft | 492 kts | 195° |
| 2026-05-06 19:25 | -56.50256 | 170.75778 | 38497 ft | 491 kts | 195° |
| 2026-05-06 19:26 | -56.57080 | 170.75025 | 38434 ft | 491 kts | 195° |
| 2026-05-06 19:26 | -56.63894 | 170.74270 | 38422 ft | 490 kts | 195° |
| 2026-05-06 19:27 | -56.70707 | 170.73513 | 38423 ft | 491 kts | 195° |
| 2026-05-06 19:27 | -56.77521 | 170.72753 | 38452 ft | 491 kts | 195° |
| 2026-05-06 19:28 | -56.84333 | 170.71993 | 38396 ft | 490 kts | 195° |
| 2026-05-06 19:28 | -56.91134 | 170.71230 | 38395 ft | 490 kts | 195° |
| 2026-05-06 19:29 | -56.96791 | 170.70593 | 38384 ft | 490 kts | 195° |
| 2026-05-06 19:29 | -57.04702 | 170.69698 | 38429 ft | 490 kts | 195° |
| 2026-05-06 19:30 | -57.11503 | 170.68927 | 38372 ft | 490 kts | 195° |
| 2026-05-06 19:30 | -57.17209 | 170.68278 | 38359 ft | 490 kts | 195° |
| 2026-05-06 19:31 | -57.24018 | 170.67500 | 38362 ft | 490 kts | 195° |
| 2026-05-06 19:31 | -57.34230 | 170.66328 | 38352 ft | 490 kts | 195° |
| 2026-05-06 19:32 | -57.40995 | 170.65549 | 38334 ft | 490 kts | 195° |
| 2026-05-06 19:32 | -57.47797 | 170.64762 | 38320 ft | 490 kts | 195° |
| 2026-05-06 19:33 | -57.54602 | 170.63972 | 38320 ft | 490 kts | 195° |
| 2026-05-06 19:33 | -57.61413 | 170.63177 | 38320 ft | 490 kts | 195° |
| 2026-05-06 19:34 | -57.68202 | 170.62385 | 38306 ft | 489 kts | 195° |
| 2026-05-06 19:34 | -57.74995 | 170.61588 | 38295 ft | 489 kts | 195° |
| 2026-05-06 19:35 | -57.81783 | 170.60786 | 38278 ft | 489 kts | 195° |
| 2026-05-06 19:35 | -57.88572 | 170.59982 | 38287 ft | 489 kts | 194° |
| 2026-05-06 19:36 | -57.95360 | 170.59176 | 38265 ft | 489 kts | 194° |
| 2026-05-06 19:36 | -58.02144 | 170.58367 | 38246 ft | 489 kts | 194° |
| 2026-05-06 19:37 | -58.08937 | 170.57554 | 38252 ft | 489 kts | 194° |
| 2026-05-06 19:37 | -58.15727 | 170.56738 | 38258 ft | 489 kts | 194° |
| 2026-05-06 19:38 | -58.22523 | 170.55918 | 38240 ft | 490 kts | 194° |
| 2026-05-06 19:38 | -58.29324 | 170.55094 | 38219 ft | 490 kts | 194° |
| 2026-05-06 19:39 | -58.36119 | 170.54269 | 38209 ft | 490 kts | 194° |
| 2026-05-06 19:39 | -58.42924 | 170.53440 | 38210 ft | 490 kts | 194° |
| 2026-05-06 19:40 | -58.49725 | 170.52607 | 38199 ft | 490 kts | 194° |
| 2026-05-06 19:40 | -58.56520 | 170.51772 | 38199 ft | 490 kts | 194° |
| 2026-05-06 19:41 | -58.63323 | 170.50932 | 38199 ft | 490 kts | 194° |
| 2026-05-06 19:41 | -58.70124 | 170.50088 | 38210 ft | 490 kts | 194° |
| 2026-05-06 19:42 | -58.76932 | 170.49240 | 38183 ft | 491 kts | 194° |
| 2026-05-06 19:42 | -58.83708 | 170.48394 | 38153 ft | 491 kts | 194° |
| 2026-05-06 19:43 | -58.90524 | 170.47545 | 38174 ft | 490 kts | 194° |
| 2026-05-06 19:43 | -58.97326 | 170.46689 | 38227 ft | 490 kts | 194° |
| 2026-05-06 19:44 | -59.04133 | 170.45825 | 38161 ft | 490 kts | 194° |
| 2026-05-06 19:44 | -59.10945 | 170.44959 | 38160 ft | 491 kts | 194° |
| 2026-05-06 19:45 | -59.17763 | 170.44091 | 38157 ft | 491 kts | 194° |
| 2026-05-06 19:45 | -59.24582 | 170.43220 | 38158 ft | 491 kts | 194° |
| 2026-05-06 19:46 | -59.31401 | 170.42345 | 38157 ft | 491 kts | 194° |
| 2026-05-06 19:46 | -59.38217 | 170.41467 | 38148 ft | 491 kts | 194° |
| 2026-05-06 19:47 | -59.45037 | 170.40584 | 38151 ft | 491 kts | 194° |
| 2026-05-06 19:47 | -59.51853 | 170.39698 | 38150 ft | 491 kts | 194° |
| 2026-05-06 19:48 | -59.58670 | 170.38807 | 38155 ft | 491 kts | 194° |
| 2026-05-06 19:48 | -59.65482 | 170.37916 | 38152 ft | 491 kts | 194° |
| 2026-05-06 19:49 | -59.72282 | 170.37021 | 38147 ft | 491 kts | 194° |
| 2026-05-06 19:49 | -59.79056 | 170.36126 | 38147 ft | 491 kts | 194° |
| 2026-05-06 19:50 | -59.85871 | 170.35221 | 38156 ft | 491 kts | 193° |
| 2026-05-06 19:50 | -59.92674 | 170.34317 | 38143 ft | 490 kts | 193° |
| 2026-05-06 19:51 | -59.99480 | 170.33408 | 38142 ft | 490 kts | 193° |
| 2026-05-06 19:51 | -60.06284 | 170.32492 | 38139 ft | 490 kts | 193° |
| 2026-05-06 19:52 | -60.13082 | 170.31562 | 38159 ft | 490 kts | 193° |
| 2026-05-06 19:52 | -60.19885 | 170.30630 | 38130 ft | 489 kts | 193° |
| 2026-05-06 19:53 | -60.26674 | 170.29697 | 38134 ft | 489 kts | 193° |
| 2026-05-06 19:53 | -60.33470 | 170.28760 | 38126 ft | 489 kts | 193° |
| 2026-05-06 19:54 | -60.40262 | 170.27819 | 38177 ft | 489 kts | 193° |
| 2026-05-06 19:54 | -60.47054 | 170.26875 | 38120 ft | 489 kts | 193° |
| 2026-05-06 19:55 | -60.53840 | 170.25929 | 38112 ft | 489 kts | 193° |
| 2026-05-06 19:55 | -60.60629 | 170.24977 | 38110 ft | 489 kts | 193° |
| 2026-05-06 19:56 | -60.67415 | 170.24021 | 38104 ft | 489 kts | 193° |
| 2026-05-06 19:56 | -60.73055 | 170.23223 | 38111 ft | 489 kts | 192° |
| 2026-05-06 19:57 | -60.79040 | 170.22375 | 38098 ft | 489 kts | 192° |
| 2026-05-06 19:57 | -60.85820 | 170.21410 | 38099 ft | 489 kts | 192° |
| 2026-05-06 19:58 | -60.92606 | 170.20439 | 38094 ft | 489 kts | 192° |
| 2026-05-06 19:58 | -60.99391 | 170.19464 | 38125 ft | 489 kts | 192° |
| 2026-05-06 19:59 | -61.06173 | 170.18487 | 38088 ft | 488 kts | 192° |
| 2026-05-06 19:59 | -61.12949 | 170.17506 | 38080 ft | 488 kts | 192° |
| 2026-05-06 20:00 | -61.17439 | 170.16853 | 38081 ft | 488 kts | 192° |